sensor_id;sensor_type;location;lat;lon;timestamp;temperature;humidity
17988;DHT22;9119;50.932;5.342;2023-04-03T00:02:08;4.70;99.90
17988;DHT22;9119;50.932;5.342;2023-04-03T00:04:33;4.60;99.90
17988;DHT22;9119;50.932;5.342;2023-04-03T00:07:00;4.50;99.90
17988;DHT22;9119;50.932;5.342;2023-04-03T00:09:25;4.40;99.90
17988;DHT22;9119;50.932;5.342;2023-04-03T00:11:51;4.40;99.90
17988;DHT22;9119;50.932;5.342;2023-04-03T00:14:17;4.30;99.90
17988;DHT22;9119;50.932;5.342;2023-04-03T00:16:43;4.30;99.90
17988;DHT22;9119;50.932;5.342;2023-04-03T00:19:09;4.20;99.90
17988;DHT22;9119;50.932;5.342;2023-04-03T00:21:37;4.20;99.90
17988;DHT22;9119;50.932;5.342;2023-04-03T00:24:03;4.20;99.90
17988;DHT22;9119;50.932;5.342;2023-04-03T00:26:28;4.30;99.90
17988;DHT22;9119;50.932;5.342;2023-04-03T00:28:54;4.30;99.90
17988;DHT22;9119;50.932;5.342;2023-04-03T00:31:21;4.30;99.90
17988;DHT22;9119;50.932;5.342;2023-04-03T00:33:47;4.40;99.90
17988;DHT22;9119;50.932;5.342;2023-04-03T00:36:13;4.30;99.90
17988;DHT22;9119;50.932;5.342;2023-04-03T00:38:39;4.40;99.90
17988;DHT22;9119;50.932;5.342;2023-04-03T00:41:05;4.40;99.90
17988;DHT22;9119;50.932;5.342;2023-04-03T00:43:31;4.40;99.90
17988;DHT22;9119;50.932;5.342;2023-04-03T00:45:58;4.40;99.90
17988;DHT22;9119;50.932;5.342;2023-04-03T00:48:34;4.30;99.90
17988;DHT22;9119;50.932;5.342;2023-04-03T00:51:03;4.30;99.90
17988;DHT22;9119;50.932;5.342;2023-04-03T00:53:37;4.30;99.90
17988;DHT22;9119;50.932;5.342;2023-04-03T00:56:06;4.20;99.90
17988;DHT22;9119;50.932;5.342;2023-04-03T00:58:38;4.20;99.90
17988;DHT22;9119;50.932;5.342;2023-04-03T01:01:07;4.20;99.90
17988;DHT22;9119;50.932;5.342;2023-04-03T01:03:34;4.10;99.90
17988;DHT22;9119;50.932;5.342;2023-04-03T01:06:00;4.10;99.90
17988;DHT22;9119;50.932;5.342;2023-04-03T01:08:26;4.10;99.90
17988;DHT22;9119;50.932;5.342;2023-04-03T01:10:52;4.30;99.90
17988;DHT22;9119;50.932;5.342;2023-04-03T01:13:22;4.20;99.90
17988;DHT22;9119;50.932;5.342;2023-04-03T01:15:48;4.10;99.90
17988;DHT22;9119;50.932;5.342;2023-04-03T01:18:14;4.10;99.90
17988;DHT22;9119;50.932;5.342;2023-04-03T01:23:39;4.10;99.90
17988;DHT22;9119;50.932;5.342;2023-04-03T01:26:09;4.00;99.90
17988;DHT22;9119;50.932;5.342;2023-04-03T01:28:37;4.00;99.90
17988;DHT22;9119;50.932;5.342;2023-04-03T01:34:05;3.90;99.90
17988;DHT22;9119;50.932;5.342;2023-04-03T01:36:31;3.80;99.90
17988;DHT22;9119;50.932;5.342;2023-04-03T01:38:58;3.90;99.90
17988;DHT22;9119;50.932;5.342;2023-04-03T01:41:25;3.90;99.90
17988;DHT22;9119;50.932;5.342;2023-04-03T01:43:51;3.80;99.90
17988;DHT22;9119;50.932;5.342;2023-04-03T01:46:18;3.80;99.90
17988;DHT22;9119;50.932;5.342;2023-04-03T01:48:45;3.80;99.90
17988;DHT22;9119;50.932;5.342;2023-04-03T01:51:11;3.80;99.90
17988;DHT22;9119;50.932;5.342;2023-04-03T01:53:36;3.80;99.90
17988;DHT22;9119;50.932;5.342;2023-04-03T01:56:02;3.80;99.90
17988;DHT22;9119;50.932;5.342;2023-04-03T01:58:28;3.80;99.90
17988;DHT22;9119;50.932;5.342;2023-04-03T02:00:54;3.90;99.90
17988;DHT22;9119;50.932;5.342;2023-04-03T02:03:20;3.80;99.90
17988;DHT22;9119;50.932;5.342;2023-04-03T02:05:46;3.70;99.90
17988;DHT22;9119;50.932;5.342;2023-04-03T02:08:12;3.70;99.90
17988;DHT22;9119;50.932;5.342;2023-04-03T02:10:38;3.70;99.90
17988;DHT22;9119;50.932;5.342;2023-04-03T02:13:04;3.90;99.90
17988;DHT22;9119;50.932;5.342;2023-04-03T02:15:30;3.70;99.90
17988;DHT22;9119;50.932;5.342;2023-04-03T02:17:56;3.70;99.90
17988;DHT22;9119;50.932;5.342;2023-04-03T02:20:22;3.80;99.90
17988;DHT22;9119;50.932;5.342;2023-04-03T02:22:47;3.60;99.90
17988;DHT22;9119;50.932;5.342;2023-04-03T02:25:13;3.60;99.90
17988;DHT22;9119;50.932;5.342;2023-04-03T02:27:39;3.60;99.90
17988;DHT22;9119;50.932;5.342;2023-04-03T02:30:05;3.60;99.90
17988;DHT22;9119;50.932;5.342;2023-04-03T02:32:32;3.60;99.90
17988;DHT22;9119;50.932;5.342;2023-04-03T02:34:58;3.60;99.90
17988;DHT22;9119;50.932;5.342;2023-04-03T02:37:24;3.50;99.90
17988;DHT22;9119;50.932;5.342;2023-04-03T02:39:50;3.50;99.90
17988;DHT22;9119;50.932;5.342;2023-04-03T02:42:15;3.40;99.90
17988;DHT22;9119;50.932;5.342;2023-04-03T02:44:41;3.40;99.90
17988;DHT22;9119;50.932;5.342;2023-04-03T02:47:07;3.40;99.90
17988;DHT22;9119;50.932;5.342;2023-04-03T02:49:33;3.40;99.90
17988;DHT22;9119;50.932;5.342;2023-04-03T02:51:58;3.40;99.90
17988;DHT22;9119;50.932;5.342;2023-04-03T02:54:24;3.40;99.90
17988;DHT22;9119;50.932;5.342;2023-04-03T02:56:53;3.40;99.90
17988;DHT22;9119;50.932;5.342;2023-04-03T02:59:18;3.40;99.90
17988;DHT22;9119;50.932;5.342;2023-04-03T03:01:44;3.30;99.90
17988;DHT22;9119;50.932;5.342;2023-04-03T03:04:10;3.30;99.90
17988;DHT22;9119;50.932;5.342;2023-04-03T03:06:35;3.30;99.90
17988;DHT22;9119;50.932;5.342;2023-04-03T03:09:01;3.30;99.90
17988;DHT22;9119;50.932;5.342;2023-04-03T03:11:27;3.40;99.90
17988;DHT22;9119;50.932;5.342;2023-04-03T03:13:52;3.40;99.90
17988;DHT22;9119;50.932;5.342;2023-04-03T03:16:18;3.30;99.90
17988;DHT22;9119;50.932;5.342;2023-04-03T03:18:44;3.20;99.90
17988;DHT22;9119;50.932;5.342;2023-04-03T03:21:10;3.10;99.90
17988;DHT22;9119;50.932;5.342;2023-04-03T03:23:36;3.10;99.90
17988;DHT22;9119;50.932;5.342;2023-04-03T03:26:04;3.00;99.90
17988;DHT22;9119;50.932;5.342;2023-04-03T03:28:30;3.00;99.90
17988;DHT22;9119;50.932;5.342;2023-04-03T03:30:57;2.80;99.90
17988;DHT22;9119;50.932;5.342;2023-04-03T03:33:23;2.80;99.90
17988;DHT22;9119;50.932;5.342;2023-04-03T03:35:49;2.80;99.90
17988;DHT22;9119;50.932;5.342;2023-04-03T03:38:15;2.80;99.90
17988;DHT22;9119;50.932;5.342;2023-04-03T03:40:40;2.80;99.90
17988;DHT22;9119;50.932;5.342;2023-04-03T03:43:07;2.90;99.90
17988;DHT22;9119;50.932;5.342;2023-04-03T03:45:32;2.90;99.90
17988;DHT22;9119;50.932;5.342;2023-04-03T03:47:58;3.00;99.90
17988;DHT22;9119;50.932;5.342;2023-04-03T03:50:24;3.00;99.90
17988;DHT22;9119;50.932;5.342;2023-04-03T03:52:50;2.90;99.90
17988;DHT22;9119;50.932;5.342;2023-04-03T03:55:15;3.00;99.90
17988;DHT22;9119;50.932;5.342;2023-04-03T03:57:41;2.90;99.90
17988;DHT22;9119;50.932;5.342;2023-04-03T04:00:07;2.90;99.90
17988;DHT22;9119;50.932;5.342;2023-04-03T04:02:34;2.90;99.90
17988;DHT22;9119;50.932;5.342;2023-04-03T04:05:00;2.90;99.90
17988;DHT22;9119;50.932;5.342;2023-04-03T04:07:25;2.90;99.90
17988;DHT22;9119;50.932;5.342;2023-04-03T04:09:53;3.00;99.90
17988;DHT22;9119;50.932;5.342;2023-04-03T04:12:19;3.00;99.90
17988;DHT22;9119;50.932;5.342;2023-04-03T04:14:45;2.90;99.90
17988;DHT22;9119;50.932;5.342;2023-04-03T04:17:15;2.90;99.90
17988;DHT22;9119;50.932;5.342;2023-04-03T04:19:41;2.90;99.90
17988;DHT22;9119;50.932;5.342;2023-04-03T04:22:06;3.10;99.90
17988;DHT22;9119;50.932;5.342;2023-04-03T04:24:32;3.00;99.90
17988;DHT22;9119;50.932;5.342;2023-04-03T04:26:58;2.80;99.90
17988;DHT22;9119;50.932;5.342;2023-04-03T04:29:24;2.80;99.90
17988;DHT22;9119;50.932;5.342;2023-04-03T04:31:50;2.90;99.90
17988;DHT22;9119;50.932;5.342;2023-04-03T04:34:16;2.80;99.90
17988;DHT22;9119;50.932;5.342;2023-04-03T04:36:42;2.80;99.90
17988;DHT22;9119;50.932;5.342;2023-04-03T04:39:08;2.70;99.90
17988;DHT22;9119;50.932;5.342;2023-04-03T04:41:34;2.70;99.90
17988;DHT22;9119;50.932;5.342;2023-04-03T04:44:00;2.70;99.90
17988;DHT22;9119;50.932;5.342;2023-04-03T04:46:26;2.70;99.90
17988;DHT22;9119;50.932;5.342;2023-04-03T04:48:52;2.50;99.90
17988;DHT22;9119;50.932;5.342;2023-04-03T04:51:17;2.50;99.90
17988;DHT22;9119;50.932;5.342;2023-04-03T04:53:43;2.60;99.90
17988;DHT22;9119;50.932;5.342;2023-04-03T04:56:09;2.60;99.90
17988;DHT22;9119;50.932;5.342;2023-04-03T04:58:35;2.70;99.90
17988;DHT22;9119;50.932;5.342;2023-04-03T05:01:06;2.60;99.90
17988;DHT22;9119;50.932;5.342;2023-04-03T05:03:32;2.90;99.90
17988;DHT22;9119;50.932;5.342;2023-04-03T05:05:58;2.70;99.90
17988;DHT22;9119;50.932;5.342;2023-04-03T05:08:24;2.60;99.90
17988;DHT22;9119;50.932;5.342;2023-04-03T05:10:52;2.50;99.90
17988;DHT22;9119;50.932;5.342;2023-04-03T05:13:19;2.50;99.90
17988;DHT22;9119;50.932;5.342;2023-04-03T05:15:46;2.60;99.90
17988;DHT22;9119;50.932;5.342;2023-04-03T05:18:11;2.70;99.90
17988;DHT22;9119;50.932;5.342;2023-04-03T05:20:37;2.70;99.90
17988;DHT22;9119;50.932;5.342;2023-04-03T05:23:03;2.70;99.90
17988;DHT22;9119;50.932;5.342;2023-04-03T05:25:29;2.60;99.90
17988;DHT22;9119;50.932;5.342;2023-04-03T05:27:55;2.80;99.90
17988;DHT22;9119;50.932;5.342;2023-04-03T05:30:21;2.70;99.90
17988;DHT22;9119;50.932;5.342;2023-04-03T05:32:47;2.70;99.90
17988;DHT22;9119;50.932;5.342;2023-04-03T05:35:13;2.60;99.90
17988;DHT22;9119;50.932;5.342;2023-04-03T05:37:38;2.50;99.90
17988;DHT22;9119;50.932;5.342;2023-04-03T05:40:05;2.50;99.90
17988;DHT22;9119;50.932;5.342;2023-04-03T05:42:31;2.50;99.90
17988;DHT22;9119;50.932;5.342;2023-04-03T05:44:57;2.60;99.90
17988;DHT22;9119;50.932;5.342;2023-04-03T05:47:23;2.50;99.90
17988;DHT22;9119;50.932;5.342;2023-04-03T05:49:48;2.60;99.90
17988;DHT22;9119;50.932;5.342;2023-04-03T05:52:22;2.60;99.90
17988;DHT22;9119;50.932;5.342;2023-04-03T05:54:48;2.70;99.90
17988;DHT22;9119;50.932;5.342;2023-04-03T05:57:17;2.70;99.90
17988;DHT22;9119;50.932;5.342;2023-04-03T05:59:43;2.70;99.90
17988;DHT22;9119;50.932;5.342;2023-04-03T06:02:15;2.80;99.90
17988;DHT22;9119;50.932;5.342;2023-04-03T06:04:41;2.90;99.90
17988;DHT22;9119;50.932;5.342;2023-04-03T06:07:19;2.90;99.90
17988;DHT22;9119;50.932;5.342;2023-04-03T06:09:47;2.60;99.90
17988;DHT22;9119;50.932;5.342;2023-04-03T06:12:13;3.00;99.90
17988;DHT22;9119;50.932;5.342;2023-04-03T06:14:39;3.00;99.90
17988;DHT22;9119;50.932;5.342;2023-04-03T06:17:05;3.00;99.90
17988;DHT22;9119;50.932;5.342;2023-04-03T06:19:32;3.00;99.90
17988;DHT22;9119;50.932;5.342;2023-04-03T06:21:57;3.10;99.90
17988;DHT22;9119;50.932;5.342;2023-04-03T06:24:23;3.10;99.90
17988;DHT22;9119;50.932;5.342;2023-04-03T06:26:51;3.20;99.90
17988;DHT22;9119;50.932;5.342;2023-04-03T06:29:18;3.40;99.90
17988;DHT22;9119;50.932;5.342;2023-04-03T06:31:44;3.40;99.90
17988;DHT22;9119;50.932;5.342;2023-04-03T06:34:10;3.50;99.90
17988;DHT22;9119;50.932;5.342;2023-04-03T06:36:37;3.60;99.90
17988;DHT22;9119;50.932;5.342;2023-04-03T06:39:03;3.70;99.90
17988;DHT22;9119;50.932;5.342;2023-04-03T06:41:29;3.70;99.90
17988;DHT22;9119;50.932;5.342;2023-04-03T06:43:54;3.80;99.90
17988;DHT22;9119;50.932;5.342;2023-04-03T06:46:23;4.10;99.90
17988;DHT22;9119;50.932;5.342;2023-04-03T06:48:49;3.90;99.90
17988;DHT22;9119;50.932;5.342;2023-04-03T06:53:44;4.00;99.90
17988;DHT22;9119;50.932;5.342;2023-04-03T06:56:11;4.00;99.90
17988;DHT22;9119;50.932;5.342;2023-04-03T06:58:36;4.10;99.90
17988;DHT22;9119;50.932;5.342;2023-04-03T07:01:02;4.10;99.90
17988;DHT22;9119;50.932;5.342;2023-04-03T07:03:28;4.10;99.90
17988;DHT22;9119;50.932;5.342;2023-04-03T07:05:54;4.20;99.90
17988;DHT22;9119;50.932;5.342;2023-04-03T07:08:19;4.20;99.90
17988;DHT22;9119;50.932;5.342;2023-04-03T07:10:45;4.20;99.90
17988;DHT22;9119;50.932;5.342;2023-04-03T07:13:11;4.30;99.90
17988;DHT22;9119;50.932;5.342;2023-04-03T07:15:37;4.30;99.90
17988;DHT22;9119;50.932;5.342;2023-04-03T07:18:03;4.40;99.90
17988;DHT22;9119;50.932;5.342;2023-04-03T07:20:29;4.40;99.90
17988;DHT22;9119;50.932;5.342;2023-04-03T07:22:55;4.40;99.90
17988;DHT22;9119;50.932;5.342;2023-04-03T07:25:21;4.50;99.90
17988;DHT22;9119;50.932;5.342;2023-04-03T07:27:47;4.60;99.90
17988;DHT22;9119;50.932;5.342;2023-04-03T07:30:13;4.60;99.90
17988;DHT22;9119;50.932;5.342;2023-04-03T07:32:39;4.50;99.90
17988;DHT22;9119;50.932;5.342;2023-04-03T07:35:06;4.60;99.90
17988;DHT22;9119;50.932;5.342;2023-04-03T07:37:32;4.70;99.90
17988;DHT22;9119;50.932;5.342;2023-04-03T07:39:58;4.80;99.90
17988;DHT22;9119;50.932;5.342;2023-04-03T07:42:25;4.80;99.90
17988;DHT22;9119;50.932;5.342;2023-04-03T07:44:53;4.80;99.90
17988;DHT22;9119;50.932;5.342;2023-04-03T07:47:19;4.80;99.90
17988;DHT22;9119;50.932;5.342;2023-04-03T07:49:45;4.80;99.90
17988;DHT22;9119;50.932;5.342;2023-04-03T07:52:12;4.70;99.90
17988;DHT22;9119;50.932;5.342;2023-04-03T07:54:41;4.70;99.90
17988;DHT22;9119;50.932;5.342;2023-04-03T07:57:07;4.90;99.90
17988;DHT22;9119;50.932;5.342;2023-04-03T07:59:32;5.00;99.90
17988;DHT22;9119;50.932;5.342;2023-04-03T08:01:58;5.00;99.90
17988;DHT22;9119;50.932;5.342;2023-04-03T08:04:24;5.10;99.90
17988;DHT22;9119;50.932;5.342;2023-04-03T08:06:51;5.20;99.90
17988;DHT22;9119;50.932;5.342;2023-04-03T08:09:17;5.20;99.90
17988;DHT22;9119;50.932;5.342;2023-04-03T08:11:43;5.30;99.90
17988;DHT22;9119;50.932;5.342;2023-04-03T08:14:09;5.50;99.90
17988;DHT22;9119;50.932;5.342;2023-04-03T08:16:40;5.60;99.90
17988;DHT22;9119;50.932;5.342;2023-04-03T08:19:07;5.60;99.90
17988;DHT22;9119;50.932;5.342;2023-04-03T08:21:33;5.60;99.90
17988;DHT22;9119;50.932;5.342;2023-04-03T08:23:58;5.80;99.90
17988;DHT22;9119;50.932;5.342;2023-04-03T08:26:24;5.90;99.90
17988;DHT22;9119;50.932;5.342;2023-04-03T08:28:52;5.90;99.90
17988;DHT22;9119;50.932;5.342;2023-04-03T08:31:19;6.00;99.90
17988;DHT22;9119;50.932;5.342;2023-04-03T08:33:45;6.00;99.90
17988;DHT22;9119;50.932;5.342;2023-04-03T08:36:24;6.20;99.90
17988;DHT22;9119;50.932;5.342;2023-04-03T08:38:53;6.30;99.90
17988;DHT22;9119;50.932;5.342;2023-04-03T08:41:43;6.50;99.90
17988;DHT22;9119;50.932;5.342;2023-04-03T08:47:04;6.70;99.90
17988;DHT22;9119;50.932;5.342;2023-04-03T08:50:05;7.20;99.90
17988;DHT22;9119;50.932;5.342;2023-04-03T08:52:42;7.20;99.90
17988;DHT22;9119;50.932;5.342;2023-04-03T08:55:39;7.20;99.90
17988;DHT22;9119;50.932;5.342;2023-04-03T09:03:43;7.70;99.90
17988;DHT22;9119;50.932;5.342;2023-04-03T09:06:20;7.80;99.90
17988;DHT22;9119;50.932;5.342;2023-04-03T09:09:19;8.10;99.90
17988;DHT22;9119;50.932;5.342;2023-04-03T09:20:14;9.10;99.90
17988;DHT22;9119;50.932;5.342;2023-04-03T09:22:43;9.30;99.90
17988;DHT22;9119;50.932;5.342;2023-04-03T09:25:13;9.60;99.90
17988;DHT22;9119;50.932;5.342;2023-04-03T09:27:42;9.90;99.90
17988;DHT22;9119;50.932;5.342;2023-04-03T09:30:16;9.80;99.90
17988;DHT22;9119;50.932;5.342;2023-04-03T09:32:43;10.10;99.90
17988;DHT22;9119;50.932;5.342;2023-04-03T09:35:34;10.20;99.90
17988;DHT22;9119;50.932;5.342;2023-04-03T09:40:36;10.30;99.90
17988;DHT22;9119;50.932;5.342;2023-04-03T09:43:23;10.20;99.90
17988;DHT22;9119;50.932;5.342;2023-04-03T09:45:50;9.50;99.90
17988;DHT22;9119;50.932;5.342;2023-04-03T09:48:25;9.70;99.90
17988;DHT22;9119;50.932;5.342;2023-04-03T09:55:52;10.60;99.90
17988;DHT22;9119;50.932;5.342;2023-04-03T09:58:28;11.20;99.90
17988;DHT22;9119;50.932;5.342;2023-04-03T10:00:59;11.40;99.90
17988;DHT22;9119;50.932;5.342;2023-04-03T10:03:29;11.20;99.90
17988;DHT22;9119;50.932;5.342;2023-04-03T10:05:56;11.40;99.90
17988;DHT22;9119;50.932;5.342;2023-04-03T10:08:33;11.60;99.90
17988;DHT22;9119;50.932;5.342;2023-04-03T10:11:16;11.60;99.90
17988;DHT22;9119;50.932;5.342;2023-04-03T10:13:58;11.80;99.90
17988;DHT22;9119;50.932;5.342;2023-04-03T10:16:50;11.30;99.90
17988;DHT22;9119;50.932;5.342;2023-04-03T10:27:58;12.40;99.90
17988;DHT22;9119;50.932;5.342;2023-04-03T10:36:27;11.90;99.90
17988;DHT22;9119;50.932;5.342;2023-04-03T10:39:14;12.00;99.90
17988;DHT22;9119;50.932;5.342;2023-04-03T10:42:09;11.60;99.90
17988;DHT22;9119;50.932;5.342;2023-04-03T10:58:40;13.10;99.90
17988;DHT22;9119;50.932;5.342;2023-04-03T11:01:19;12.90;99.90
17988;DHT22;9119;50.932;5.342;2023-04-03T11:03:50;13.00;99.90
17988;DHT22;9119;50.932;5.342;2023-04-03T11:06:20;13.40;99.90
17988;DHT22;9119;50.932;5.342;2023-04-03T11:08:56;13.40;99.90
17988;DHT22;9119;50.932;5.342;2023-04-03T11:11:32;13.10;99.90
17988;DHT22;9119;50.932;5.342;2023-04-03T11:14:17;13.00;99.90
17988;DHT22;9119;50.932;5.342;2023-04-03T11:16:50;12.40;99.90
17988;DHT22;9119;50.932;5.342;2023-04-03T11:19:21;11.60;99.90
17988;DHT22;9119;50.932;5.342;2023-04-03T11:22:06;10.70;99.90
17988;DHT22;9119;50.932;5.342;2023-04-03T11:24:36;10.00;99.90
17988;DHT22;9119;50.932;5.342;2023-04-03T11:27:05;9.60;99.90
17988;DHT22;9119;50.932;5.342;2023-04-03T11:29:39;9.30;99.90
17988;DHT22;9119;50.932;5.342;2023-04-03T11:34:49;9.40;99.90
17988;DHT22;9119;50.932;5.342;2023-04-03T11:37:38;9.40;99.90
17988;DHT22;9119;50.932;5.342;2023-04-03T11:42:42;9.30;99.90
17988;DHT22;9119;50.932;5.342;2023-04-03T11:50:51;9.10;99.90
17988;DHT22;9119;50.932;5.342;2023-04-03T11:56:01;9.20;99.90
17988;DHT22;9119;50.932;5.342;2023-04-03T11:58:31;9.10;99.90
17988;DHT22;9119;50.932;5.342;2023-04-03T12:01:10;9.20;99.90
17988;DHT22;9119;50.932;5.342;2023-04-03T12:16:26;9.10;99.90
17988;DHT22;9119;50.932;5.342;2023-04-03T12:26:41;9.20;99.90
17988;DHT22;9119;50.932;5.342;2023-04-03T12:29:20;9.10;99.90
17988;DHT22;9119;50.932;5.342;2023-04-03T12:37:46;9.10;99.90
17988;DHT22;9119;50.932;5.342;2023-04-03T12:48:18;9.20;99.90
17988;DHT22;9119;50.932;5.342;2023-04-03T12:50:46;9.20;99.90
17988;DHT22;9119;50.932;5.342;2023-04-03T12:53:27;9.20;99.90
17988;DHT22;9119;50.932;5.342;2023-04-03T12:55:56;9.20;99.90
17988;DHT22;9119;50.932;5.342;2023-04-03T12:58:27;9.10;99.90
17988;DHT22;9119;50.932;5.342;2023-04-03T13:01:08;9.20;99.90
17988;DHT22;9119;50.932;5.342;2023-04-03T13:03:37;9.00;99.90
17988;DHT22;9119;50.932;5.342;2023-04-03T13:06:04;9.10;99.90
17988;DHT22;9119;50.932;5.342;2023-04-03T13:08:30;9.10;99.90
17988;DHT22;9119;50.932;5.342;2023-04-03T13:13:30;9.20;99.90
17988;DHT22;9119;50.932;5.342;2023-04-03T13:15:56;9.20;99.90
17988;DHT22;9119;50.932;5.342;2023-04-03T13:18:31;9.30;99.90
17988;DHT22;9119;50.932;5.342;2023-04-03T13:21:08;9.40;99.90
17988;DHT22;9119;50.932;5.342;2023-04-03T13:23:40;9.50;99.90
17988;DHT22;9119;50.932;5.342;2023-04-03T13:26:08;9.40;99.90
17988;DHT22;9119;50.932;5.342;2023-04-03T13:28:35;9.30;99.90
17988;DHT22;9119;50.932;5.342;2023-04-03T13:31:13;9.30;99.90
17988;DHT22;9119;50.932;5.342;2023-04-03T13:34:04;9.50;99.90
17988;DHT22;9119;50.932;5.342;2023-04-03T13:36:34;9.60;99.90
17988;DHT22;9119;50.932;5.342;2023-04-03T13:41:51;9.60;99.90
17988;DHT22;9119;50.932;5.342;2023-04-03T13:47:37;9.50;99.90
17988;DHT22;9119;50.932;5.342;2023-04-03T13:49:58;9.50;99.90
17988;DHT22;9119;50.932;5.342;2023-04-03T13:54:58;9.50;99.90
17988;DHT22;9119;50.932;5.342;2023-04-03T13:57:25;9.60;99.90
17988;DHT22;9119;50.932;5.342;2023-04-03T13:59:51;9.60;99.90
17988;DHT22;9119;50.932;5.342;2023-04-03T14:02:19;9.50;99.90
17988;DHT22;9119;50.932;5.342;2023-04-03T14:04:53;9.50;99.90
17988;DHT22;9119;50.932;5.342;2023-04-03T14:07:22;9.60;99.90
17988;DHT22;9119;50.932;5.342;2023-04-03T14:09:48;9.60;99.90
17988;DHT22;9119;50.932;5.342;2023-04-03T14:12:15;9.80;99.90
17988;DHT22;9119;50.932;5.342;2023-04-03T14:14:42;9.70;99.90
17988;DHT22;9119;50.932;5.342;2023-04-03T14:17:15;9.70;99.90
17988;DHT22;9119;50.932;5.342;2023-04-03T14:19:41;9.60;99.90
17988;DHT22;9119;50.932;5.342;2023-04-03T14:24:44;9.70;99.90
17988;DHT22;9119;50.932;5.342;2023-04-03T14:27:23;9.80;99.90
17988;DHT22;9119;50.932;5.342;2023-04-03T14:29:50;9.80;99.90
17988;DHT22;9119;50.932;5.342;2023-04-03T14:32:18;9.70;99.90
17988;DHT22;9119;50.932;5.342;2023-04-03T14:34:44;9.60;99.90
17988;DHT22;9119;50.932;5.342;2023-04-03T14:37:16;9.70;99.90
17988;DHT22;9119;50.932;5.342;2023-04-03T14:39:43;9.80;99.90
17988;DHT22;9119;50.932;5.342;2023-04-03T14:42:15;9.70;99.90
17988;DHT22;9119;50.932;5.342;2023-04-03T14:44:41;9.90;99.90
17988;DHT22;9119;50.932;5.342;2023-04-03T14:47:15;9.80;99.90
17988;DHT22;9119;50.932;5.342;2023-04-03T14:49:42;9.80;99.90
17988;DHT22;9119;50.932;5.342;2023-04-03T14:52:23;9.90;99.90
17988;DHT22;9119;50.932;5.342;2023-04-03T14:54:50;9.90;99.90
17988;DHT22;9119;50.932;5.342;2023-04-03T14:57:16;10.00;99.90
17988;DHT22;9119;50.932;5.342;2023-04-03T14:59:43;9.90;99.90
17988;DHT22;9119;50.932;5.342;2023-04-03T15:02:37;9.90;99.90
17988;DHT22;9119;50.932;5.342;2023-04-03T15:05:05;9.90;99.90
17988;DHT22;9119;50.932;5.342;2023-04-03T15:07:53;9.70;99.90
17988;DHT22;9119;50.932;5.342;2023-04-03T15:10:26;9.70;99.90
17988;DHT22;9119;50.932;5.342;2023-04-03T15:12:52;9.70;99.90
17988;DHT22;9119;50.932;5.342;2023-04-03T15:15:21;9.70;99.90
17988;DHT22;9119;50.932;5.342;2023-04-03T15:17:54;9.70;99.90
17988;DHT22;9119;50.932;5.342;2023-04-03T15:20:22;9.70;99.90
17988;DHT22;9119;50.932;5.342;2023-04-03T15:22:49;9.70;99.90
17988;DHT22;9119;50.932;5.342;2023-04-03T15:25:15;9.70;99.90
17988;DHT22;9119;50.932;5.342;2023-04-03T15:27:42;9.70;99.90
17988;DHT22;9119;50.932;5.342;2023-04-03T15:30:13;9.80;99.90
17988;DHT22;9119;50.932;5.342;2023-04-03T15:32:40;9.80;99.90
17988;DHT22;9119;50.932;5.342;2023-04-03T15:35:06;9.70;99.90
17988;DHT22;9119;50.932;5.342;2023-04-03T15:37:31;9.70;99.90
17988;DHT22;9119;50.932;5.342;2023-04-03T15:39:57;9.70;99.90
17988;DHT22;9119;50.932;5.342;2023-04-03T15:42:23;9.60;99.90
17988;DHT22;9119;50.932;5.342;2023-04-03T15:44:49;9.50;99.90
17988;DHT22;9119;50.932;5.342;2023-04-03T15:47:15;9.50;99.90
17988;DHT22;9119;50.932;5.342;2023-04-03T15:49:40;9.60;99.90
17988;DHT22;9119;50.932;5.342;2023-04-03T15:52:06;9.50;99.90
17988;DHT22;9119;50.932;5.342;2023-04-03T15:54:32;9.40;99.90
17988;DHT22;9119;50.932;5.342;2023-04-03T15:56:58;9.40;99.90
17988;DHT22;9119;50.932;5.342;2023-04-03T15:59:23;9.40;99.90
17988;DHT22;9119;50.932;5.342;2023-04-03T16:01:50;9.40;99.90
17988;DHT22;9119;50.932;5.342;2023-04-03T16:04:16;9.50;99.90
17988;DHT22;9119;50.932;5.342;2023-04-03T16:06:43;9.50;99.90
17988;DHT22;9119;50.932;5.342;2023-04-03T16:09:09;9.50;99.90
17988;DHT22;9119;50.932;5.342;2023-04-03T16:11:35;9.50;99.90
17988;DHT22;9119;50.932;5.342;2023-04-03T16:14:02;9.50;99.90
17988;DHT22;9119;50.932;5.342;2023-04-03T16:16:28;9.50;99.90
17988;DHT22;9119;50.932;5.342;2023-04-03T16:18:55;9.40;99.90
17988;DHT22;9119;50.932;5.342;2023-04-03T16:21:22;9.40;99.90
17988;DHT22;9119;50.932;5.342;2023-04-03T16:23:48;9.40;99.90
17988;DHT22;9119;50.932;5.342;2023-04-03T16:26:14;9.40;99.90
17988;DHT22;9119;50.932;5.342;2023-04-03T16:28:40;9.30;99.90
17988;DHT22;9119;50.932;5.342;2023-04-03T16:31:06;9.30;99.90
17988;DHT22;9119;50.932;5.342;2023-04-03T16:33:32;9.40;99.90
17988;DHT22;9119;50.932;5.342;2023-04-03T16:35:59;9.40;99.90
17988;DHT22;9119;50.932;5.342;2023-04-03T16:38:25;9.30;99.90
17988;DHT22;9119;50.932;5.342;2023-04-03T16:40:50;9.40;99.90
17988;DHT22;9119;50.932;5.342;2023-04-03T16:43:17;9.40;99.90
17988;DHT22;9119;50.932;5.342;2023-04-03T16:45:43;9.30;99.90
17988;DHT22;9119;50.932;5.342;2023-04-03T16:48:09;9.30;99.90
17988;DHT22;9119;50.932;5.342;2023-04-03T16:50:36;9.20;99.90
17988;DHT22;9119;50.932;5.342;2023-04-03T16:53:01;9.20;99.90
17988;DHT22;9119;50.932;5.342;2023-04-03T16:55:28;9.20;99.90
17988;DHT22;9119;50.932;5.342;2023-04-03T16:57:54;9.10;99.90
17988;DHT22;9119;50.932;5.342;2023-04-03T17:00:20;9.10;99.90
17988;DHT22;9119;50.932;5.342;2023-04-03T17:02:46;9.10;99.90
17988;DHT22;9119;50.932;5.342;2023-04-03T17:05:12;9.10;99.90
17988;DHT22;9119;50.932;5.342;2023-04-03T17:07:38;9.00;99.90
17988;DHT22;9119;50.932;5.342;2023-04-03T17:10:04;9.00;99.90
17988;DHT22;9119;50.932;5.342;2023-04-03T17:12:29;9.10;99.90
17988;DHT22;9119;50.932;5.342;2023-04-03T17:14:55;9.10;99.90
17988;DHT22;9119;50.932;5.342;2023-04-03T17:17:23;9.10;99.90
17988;DHT22;9119;50.932;5.342;2023-04-03T17:19:49;9.00;99.90
17988;DHT22;9119;50.932;5.342;2023-04-03T17:22:15;8.90;99.90
17988;DHT22;9119;50.932;5.342;2023-04-03T17:24:43;8.90;99.90
17988;DHT22;9119;50.932;5.342;2023-04-03T17:27:09;8.90;99.90
17988;DHT22;9119;50.932;5.342;2023-04-03T17:29:35;8.90;99.90
17988;DHT22;9119;50.932;5.342;2023-04-03T17:32:00;8.80;99.90
17988;DHT22;9119;50.932;5.342;2023-04-03T17:34:26;8.80;99.90
17988;DHT22;9119;50.932;5.342;2023-04-03T17:36:52;8.70;99.90
17988;DHT22;9119;50.932;5.342;2023-04-03T17:39:18;8.80;99.90
17988;DHT22;9119;50.932;5.342;2023-04-03T17:41:43;8.80;99.90
17988;DHT22;9119;50.932;5.342;2023-04-03T17:44:10;8.80;99.90
17988;DHT22;9119;50.932;5.342;2023-04-03T17:46:36;8.80;99.90
17988;DHT22;9119;50.932;5.342;2023-04-03T17:49:02;8.70;99.90
17988;DHT22;9119;50.932;5.342;2023-04-03T17:51:29;8.60;99.90
17988;DHT22;9119;50.932;5.342;2023-04-03T17:53:55;8.50;99.90
17988;DHT22;9119;50.932;5.342;2023-04-03T17:56:25;8.50;99.90
17988;DHT22;9119;50.932;5.342;2023-04-03T17:58:55;8.50;99.90
17988;DHT22;9119;50.932;5.342;2023-04-03T18:01:29;8.50;99.90
17988;DHT22;9119;50.932;5.342;2023-04-03T18:03:58;8.50;99.90
17988;DHT22;9119;50.932;5.342;2023-04-03T18:06:36;8.50;99.90
17988;DHT22;9119;50.932;5.342;2023-04-03T18:09:15;8.50;99.90
17988;DHT22;9119;50.932;5.342;2023-04-03T18:11:43;8.40;99.90